Time;durP1;ratioP1;P1;durP2;ratioP2;P2;SDS_P1;SDS_P2;PMS_P1;PMS_P2;Temp;Humidity;BMP_temperature;BMP_pressure;BME280_temperature;BME280_humidity;BME280_pressure;Samples;Min_cycle;Max_cycle;Signal;HPM_P1;HPM_P2
2023/11/05 00:01:31;;;;;;;0.10;0.10;;;9.50;99.90;;;;;;5040889;28;20155;-64
2023/11/05 00:04:04;;;;;;;0.65;0.10;;;9.50;99.90;;;;;;5032534;28;20065;-64
2023/11/05 00:06:36;;;;;;;0.45;0.10;;;9.50;99.90;;;;;;5036790;28;20040;-63
2023/11/05 00:09:08;;;;;;;1.05;0.10;;;9.60;99.90;;;;;;5040562;28;20509;-64
2023/11/05 00:11:40;;;;;;;0.10;0.10;;;9.60;99.90;;;;;;5043422;28;20048;-64
2023/11/05 00:14:12;;;;;;;0.82;0.20;;;9.50;99.90;;;;;;5038395;28;20056;-64
2023/11/05 00:16:44;;;;;;;0.47;0.20;;;9.50;99.90;;;;;;5042272;28;20045;-64
2023/11/05 00:19:16;;;;;;;0.75;0.20;;;9.60;99.90;;;;;;5039114;28;20524;-64
2023/11/05 00:21:48;;;;;;;0.32;0.10;;;9.50;99.90;;;;;;5047865;28;20057;-64
2023/11/05 00:24:19;;;;;;;0.32;0.13;;;9.50;99.90;;;;;;5048160;28;20051;-63
2023/11/05 00:26:46;;;;;;;0.68;0.20;;;9.60;99.90;;;;;;5049886;28;20037;-64
2023/11/05 00:29:18;;;;;;;0.45;0.13;;;9.60;99.90;;;;;;5048735;28;20094;-64
2023/11/05 00:31:52;;;;;;;0.50;0.22;;;9.50;99.90;;;;;;5031067;28;20041;-64
2023/11/05 00:34:24;;;;;;;0.50;0.15;;;9.50;99.90;;;;;;5045715;28;20052;-64
2023/11/05 00:36:55;;;;;;;0.15;0.10;;;9.60;99.90;;;;;;5041488;28;20033;-64
2023/11/05 00:39:27;;;;;;;0.43;0.20;;;9.50;99.90;;;;;;5058082;28;20065;-64
2023/11/05 00:41:59;;;;;;;0.30;0.20;;;9.60;99.90;;;;;;5044451;28;20048;-64
2023/11/05 00:44:31;;;;;;;0.60;0.22;;;9.60;99.90;;;;;;5038300;28;20075;-64
2023/11/05 00:47:03;;;;;;;0.68;0.20;;;9.60;99.90;;;;;;5041277;28;20537;-64
2023/11/05 00:49:35;;;;;;;0.82;0.10;;;9.60;99.90;;;;;;5042235;28;20084;-64
2023/11/05 00:52:03;;;;;;;0.20;0.20;;;9.60;99.90;;;;;;5045801;28;20129;-64
2023/11/05 00:54:35;;;;;;;0.90;0.20;;;9.50;99.90;;;;;;5030016;28;20045;-64
2023/11/05 00:57:07;;;;;;;0.85;0.20;;;9.50;99.90;;;;;;5045867;28;20045;-64
2023/11/05 00:59:39;;;;;;;0.47;0.20;;;9.50;99.90;;;;;;5040616;28;20505;-64
2023/11/05 01:02:10;;;;;;;0.40;0.13;;;9.50;99.90;;;;;;5046015;28;20049;-64
2023/11/05 01:04:43;;;;;;;0.73;0.43;;;9.40;99.90;;;;;;5044413;28;20045;-64
2023/11/05 01:07:16;;;;;;;;;;;9.40;99.90;;;;;;5042254;28;20045;-64
2023/11/05 01:09:47;;;;;;;0.25;0.20;;;9.40;99.90;;;;;;5038082;28;19932;-62
2023/11/05 01:12:19;;;;;;;0.50;0.20;;;9.40;99.90;;;;;;5051028;28;20049;-64
2023/11/05 01:14:46;;;;;;;0.20;0.15;;;9.30;99.90;;;;;;5050410;28;20120;-64
2023/11/05 01:17:18;;;;;;;0.57;0.20;;;9.30;99.90;;;;;;5044209;28;20059;-64
2023/11/05 01:19:50;;;;;;;0.50;0.22;;;9.30;99.90;;;;;;5043875;28;20041;-64
2023/11/05 01:22:17;;;;;;;0.95;0.10;;;9.20;99.90;;;;;;5051597;28;20536;-64
2023/11/05 01:24:49;;;;;;;0.38;0.20;;;9.10;99.90;;;;;;5032368;28;20513;-64
2023/11/05 01:27:21;;;;;;;1.63;0.17;;;9.10;99.90;;;;;;5049360;28;20053;-64
2023/11/05 01:29:52;;;;;;;0.43;0.20;;;9.00;99.90;;;;;;5048591;28;20049;-64
2023/11/05 01:32:24;;;;;;;2.35;0.30;;;9.00;99.90;;;;;;5034913;28;20064;-64
2023/11/05 01:34:56;;;;;;;1.35;0.50;;;8.90;99.90;;;;;;5046658;28;20033;-64
2023/11/05 01:37:28;;;;;;;0.32;0.15;;;8.90;99.90;;;;;;5031690;28;20049;-64
2023/11/05 01:39:59;;;;;;;1.00;0.10;;;8.80;99.90;;;;;;5050305;28;20421;-64
2023/11/05 01:42:31;;;;;;;2.10;0.20;;;8.70;99.90;;;;;;5049431;28;20091;-64
2023/11/05 01:45:04;;;;;;;0.10;0.10;;;8.60;99.90;;;;;;5042083;28;20045;-64
2023/11/05 01:47:30;;;;;;;0.20;0.10;;;8.50;99.90;;;;;;5050295;28;20427;-64
2023/11/05 01:50:03;;;;;;;0.25;0.20;;;8.30;99.90;;;;;;5042247;28;20039;-64
2023/11/05 01:52:36;;;;;;;1.85;0.20;;;8.20;99.90;;;;;;5052966;28;20059;-64
2023/11/05 01:55:08;;;;;;;1.80;0.20;;;8.10;99.90;;;;;;5047971;28;20493;-64
2023/11/05 01:57:40;;;;;;;0.20;0.10;;;7.90;99.90;;;;;;5033566;28;20049;-64
2023/11/05 02:00:12;;;;;;;0.35;0.30;;;7.90;99.90;;;;;;5050366;28;20053;-64
2023/11/05 02:02:44;;;;;;;0.47;0.15;;;7.70;99.90;;;;;;5034198;28;20044;-64
2023/11/05 02:05:17;;;;;;;0.10;0.10;;;7.60;99.90;;;;;;5048741;28;20063;-64
2023/11/05 02:07:48;;;;;;;1.05;0.30;;;7.50;99.90;;;;;;5016291;28;20071;-64
2023/11/05 02:10:21;;;;;;;0.35;0.22;;;7.50;99.90;;;;;;5047892;28;20052;-64
2023/11/05 02:13:04;;;;;;;0.82;0.20;;;7.40;99.90;;;;;;5039555;28;20118;-64
2023/11/05 02:15:31;;;;;;;3.08;0.20;;;7.30;99.90;;;;;;5053351;28;20525;-64
2023/11/05 02:18:03;;;;;;;1.25;0.10;;;7.30;99.90;;;;;;5049566;28;20068;-64
2023/11/05 02:20:35;;;;;;;0.38;0.20;;;7.30;99.90;;;;;;5051154;28;20053;-64
2023/11/05 02:23:04;;;;;;;0.20;0.10;;;7.40;99.90;;;;;;5050012;28;20037;-64
2023/11/05 02:25:36;;;;;;;0.47;0.10;;;7.40;99.90;;;;;;5011317;28;20099;-64
2023/11/05 02:28:08;;;;;;;0.30;0.20;;;7.50;99.90;;;;;;5015034;28;20049;-64
2023/11/05 02:30:40;;;;;;;0.30;0.20;;;7.60;99.90;;;;;;5046348;28;20042;-64
2023/11/05 02:33:12;;;;;;;0.57;0.28;;;7.70;99.90;;;;;;5050471;28;20049;-64
2023/11/05 02:35:43;;;;;;;0.47;0.28;;;7.60;99.90;;;;;;5023684;28;20052;-64
2023/11/05 02:38:15;;;;;;;1.67;0.30;;;7.60;99.90;;;;;;5048088;28;20041;-64
2023/11/05 02:40:42;;;;;;;1.42;0.20;;;7.50;99.90;;;;;;5043206;28;20091;-64
2023/11/05 02:43:14;;;;;;;1.70;0.20;;;7.40;99.90;;;;;;5009973;28;20148;-64
2023/11/05 02:45:46;;;;;;;1.00;0.20;;;7.40;99.90;;;;;;5037242;28;20072;-64
2023/11/05 02:48:18;;;;;;;0.50;0.15;;;7.30;99.90;;;;;;5037646;28;20045;-64
2023/11/05 02:50:50;;;;;;;1.50;0.22;;;7.20;99.90;;;;;;5022138;28;20605;-64
2023/11/05 02:53:23;;;;;;;0.75;0.28;;;7.20;99.90;;;;;;5043769;28;20107;-64
2023/11/05 02:55:55;;;;;;;2.25;0.52;;;7.10;99.90;;;;;;5012101;28;20049;-64
2023/11/05 02:58:22;;;;;;;1.00;0.30;;;7.00;99.90;;;;;;5030503;28;20140;-64
2023/11/05 03:00:54;;;;;;;0.35;0.25;;;7.10;99.90;;;;;;5044866;28;20048;-64
2023/11/05 03:03:27;;;;;;;0.60;0.20;;;7.10;99.90;;;;;;5039753;28;20052;-64
2023/11/05 03:05:58;;;;;;;0.53;0.20;;;7.10;99.90;;;;;;5028581;28;20537;-64
2023/11/05 03:08:25;;;;;;;0.40;0.20;;;7.10;99.90;;;;;;5046413;28;20128;-64
2023/11/05 03:10:52;;;;;;;2.15;0.20;;;7.10;99.90;;;;;;5047395;28;20042;-64
2023/11/05 03:13:28;;;;;;;1.48;0.30;;;7.10;99.90;;;;;;5036258;28;20124;-64
2023/11/05 03:15:59;;;;;;;0.50;0.13;;;7.10;99.90;;;;;;5041359;28;20084;-64
2023/11/05 03:18:31;;;;;;;1.27;0.10;;;7.10;99.90;;;;;;5039899;28;20797;-64
2023/11/05 03:21:03;;;;;;;0.50;0.20;;;7.10;99.90;;;;;;5024526;28;20050;-64
2023/11/05 03:23:35;;;;;;;1.13;0.20;;;7.00;99.90;;;;;;5040994;28;20577;-64
2023/11/05 03:26:06;;;;;;;1.02;0.30;;;7.00;99.90;;;;;;5025180;28;20050;-64
2023/11/05 03:28:38;;;;;;;0.40;0.20;;;7.00;99.90;;;;;;5042564;28;20095;-64
2023/11/05 03:31:14;;;;;;;1.08;0.38;;;7.00;99.90;;;;;;5046137;28;20824;-64
2023/11/05 03:33:48;;;;;;;0.20;0.15;;;7.00;99.90;;;;;;5045499;28;20037;-64
2023/11/05 03:36:19;;;;;;;;;;;7.00;99.90;;;;;;5047053;28;20627;-64
2023/11/05 03:38:51;;;;;;;0.22;0.22;;;7.00;99.90;;;;;;5046552;28;19924;-63
2023/11/05 03:41:23;;;;;;;0.88;0.30;;;7.00;99.90;;;;;;5039004;28;20042;-64
2023/11/05 03:43:55;;;;;;;0.35;0.20;;;7.00;99.90;;;;;;5017562;28;20049;-64
2023/11/05 03:46:26;;;;;;;0.63;0.20;;;6.90;99.90;;;;;;5047000;28;20052;-64
2023/11/05 03:48:58;;;;;;;0.73;0.20;;;6.90;99.90;;;;;;5038174;28;20053;-64
2023/11/05 03:51:30;;;;;;;3.15;0.20;;;6.90;99.90;;;;;;5039427;28;20041;-64
2023/11/05 03:54:04;;;;;;;0.40;0.20;;;6.80;99.90;;;;;;5047776;28;20041;-64
2023/11/05 03:56:36;;;;;;;0.43;0.20;;;6.80;99.90;;;;;;5041708;28;20103;-64
2023/11/05 03:59:08;;;;;;;0.90;0.30;;;6.80;99.90;;;;;;5044944;28;20045;-64
2023/11/05 04:01:40;;;;;;;2.10;1.55;;;6.70;99.90;;;;;;5037863;28;20045;-64
2023/11/05 04:04:12;;;;;;;0.63;0.22;;;6.70;99.90;;;;;;5030173;28;20047;-64
2023/11/05 04:06:44;;;;;;;0.65;0.32;;;6.70;99.90;;;;;;5046031;28;20045;-64
2023/11/05 04:09:15;;;;;;;2.88;0.30;;;6.70;99.90;;;;;;5047877;28;20067;-64
2023/11/05 04:11:42;;;;;;;0.73;0.20;;;6.70;99.90;;;;;;5045858;28;20120;-64
2023/11/05 04:14:14;;;;;;;1.25;0.30;;;6.60;99.90;;;;;;5038974;28;20580;-64
2023/11/05 04:16:46;;;;;;;2.45;0.40;;;6.50;99.90;;;;;;5039287;28;20041;-64
2023/11/05 04:19:18;;;;;;;0.60;0.40;;;6.50;99.90;;;;;;5040959;28;20568;-64
2023/11/05 04:21:49;;;;;;;0.50;0.30;;;6.60;99.90;;;;;;5037573;28;20045;-64
2023/11/05 04:24:16;;;;;;;0.20;0.15;;;6.50;99.90;;;;;;5043481;28;20041;-64
2023/11/05 04:26:43;;;;;;;0.80;0.40;;;6.50;99.90;;;;;;5048196;28;20055;-64
2023/11/05 04:29:15;;;;;;;1.10;0.30;;;6.50;99.90;;;;;;5038577;28;20051;-63
2023/11/05 04:31:46;;;;;;;0.65;0.20;;;6.50;99.90;;;;;;5033568;28;20411;-64
2023/11/05 04:34:19;;;;;;;1.77;0.30;;;6.50;99.90;;;;;;5031843;28;20045;-64
2023/11/05 04:36:51;;;;;;;0.60;0.30;;;6.60;99.90;;;;;;5044109;28;20044;-64
2023/11/05 04:39:22;;;;;;;0.40;0.30;;;6.60;99.90;;;;;;5048481;28;20037;-64
2023/11/05 04:41:54;;;;;;;1.60;0.22;;;6.70;99.90;;;;;;5047326;28;20114;-64
2023/11/05 04:44:26;;;;;;;0.50;0.30;;;6.70;99.90;;;;;;5037601;28;20049;-64
2023/11/05 04:46:59;;;;;;;0.50;0.28;;;6.70;99.90;;;;;;5040985;28;20045;-64
2023/11/05 04:49:31;;;;;;;0.45;0.30;;;6.70;99.90;;;;;;5044617;28;20059;-64
2023/11/05 04:52:04;;;;;;;0.63;0.30;;;6.70;99.90;;;;;;5042800;28;20049;-64
2023/11/05 04:54:30;;;;;;;0.52;0.20;;;6.70;99.90;;;;;;5051827;28;20509;-64
2023/11/05 04:56:59;;;;;;;0.47;0.35;;;6.70;99.90;;;;;;5051548;28;20131;-64
2023/11/05 04:59:33;;;;;;;0.60;0.10;;;6.70;99.90;;;;;;5049072;28;20132;-64
2023/11/05 05:02:05;;;;;;;2.00;0.15;;;6.70;99.90;;;;;;5050097;28;20050;-64
2023/11/05 05:04:37;;;;;;;0.38;0.17;;;6.70;99.90;;;;;;5040577;28;20120;-64
2023/11/05 05:07:09;;;;;;;0.50;0.20;;;6.70;99.90;;;;;;5053676;28;20080;-64
2023/11/05 05:09:37;;;;;;;0.77;0.30;;;6.70;99.90;;;;;;5052242;28;20145;-64
2023/11/05 05:12:09;;;;;;;0.50;0.20;;;6.80;99.90;;;;;;5028442;28;20048;-64
2023/11/05 05:14:41;;;;;;;0.77;0.32;;;6.80;99.90;;;;;;5038305;28;20042;-64
2023/11/05 05:17:15;;;;;;;0.20;0.20;;;6.90;99.90;;;;;;5040119;28;20045;-64
2023/11/05 05:19:47;;;;;;;1.58;0.38;;;6.90;99.90;;;;;;5044829;28;20132;-64
2023/11/05 05:22:19;;;;;;;1.92;0.32;;;7.00;99.90;;;;;;5041622;28;20056;-64
2023/11/05 05:24:50;;;;;;;0.38;0.10;;;7.00;99.90;;;;;;5044333;28;20523;-64
2023/11/05 05:27:17;;;;;;;1.75;0.20;;;7.00;99.90;;;;;;5040665;28;20057;-64
2023/11/05 05:29:49;;;;;;;1.33;0.20;;;7.00;99.90;;;;;;5038757;28;20037;-64
2023/11/05 05:32:21;;;;;;;2.50;0.30;;;6.90;99.90;;;;;;5048642;28;20517;-64
2023/11/05 05:34:53;;;;;;;2.78;0.35;;;6.90;99.90;;;;;;5045540;28;20044;-64
2023/11/05 05:37:24;;;;;;;0.82;0.30;;;6.90;99.90;;;;;;5043248;28;20083;-64
2023/11/05 05:39:56;;;;;;;1.60;0.30;;;6.80;99.90;;;;;;5032935;28;20045;-64
2023/11/05 05:42:29;;;;;;;1.10;0.20;;;6.80;99.90;;;;;;5042475;28;20237;-64
2023/11/05 05:45:02;;;;;;;2.20;0.20;;;6.80;99.90;;;;;;5048944;28;20045;-63
2023/11/05 05:47:34;;;;;;;2.13;0.30;;;6.70;99.90;;;;;;5038443;28;20045;-64
2023/11/05 05:50:07;;;;;;;0.30;0.10;;;6.70;99.90;;;;;;5036074;28;20052;-64
2023/11/05 05:52:39;;;;;;;1.00;0.20;;;6.60;99.90;;;;;;5041521;28;20033;-64
2023/11/05 05:55:10;;;;;;;1.30;0.20;;;6.50;99.90;;;;;;5043381;28;20033;-64
2023/11/05 05:57:42;;;;;;;1.70;0.20;;;6.40;99.90;;;;;;5045596;28;20038;-64
2023/11/05 06:00:15;;;;;;;0.80;0.43;;;6.30;99.90;;;;;;5040110;28;20052;-64
2023/11/05 06:02:47;;;;;;;0.47;0.20;;;6.30;99.90;;;;;;5037086;28;20068;-64
2023/11/05 06:05:19;;;;;;;0.10;0.10;;;6.40;99.90;;;;;;5035739;28;20280;-64
2023/11/05 06:07:46;;;;;;;0.22;0.15;;;6.70;99.90;;;;;;5033942;28;20045;-64
2023/11/05 06:10:13;;;;;;;0.10;0.10;;;6.90;99.90;;;;;;5047965;28;20128;-64
2023/11/05 06:12:45;;;;;;;0.43;0.15;;;7.20;99.90;;;;;;5048791;28;20043;-64
2023/11/05 06:15:17;;;;;;;1.98;0.25;;;7.50;99.90;;;;;;5047534;28;20049;-64
2023/11/05 06:17:49;;;;;;;0.40;0.20;;;7.90;99.90;;;;;;5042420;28;20041;-64
2023/11/05 06:20:21;;;;;;;0.70;0.20;;;8.10;99.90;;;;;;5041532;28;20041;-64
2023/11/05 06:22:53;;;;;;;0.60;0.20;;;8.40;99.90;;;;;;5041318;28;20046;-64
2023/11/05 06:25:25;;;;;;;2.00;0.20;;;8.50;99.90;;;;;;5033502;28;20041;-64
2023/11/05 06:27:57;;;;;;;0.93;0.13;;;8.50;99.90;;;;;;5043193;28;20613;-64
2023/11/05 06:30:29;;;;;;;2.20;1.00;;;8.50;99.90;;;;;;5038939;28;20037;-64
2023/11/05 06:33:01;;;;;;;0.43;0.20;;;8.50;99.90;;;;;;5035878;28;20060;-64
2023/11/05 06:35:33;;;;;;;1.05;0.15;;;8.60;99.90;;;;;;5032994;28;20418;-64
2023/11/05 06:38:05;;;;;;;0.75;0.50;;;8.70;99.90;;;;;;5033612;28;20046;-64
2023/11/05 06:40:36;;;;;;;1.02;0.22;;;8.70;99.90;;;;;;5035071;28;20052;-64
2023/11/05 06:43:03;;;;;;;0.98;0.20;;;8.70;99.90;;;;;;5040822;28;20431;-64
2023/11/05 06:45:35;;;;;;;0.28;0.17;;;8.70;99.90;;;;;;5047420;28;20534;-64
2023/11/05 06:48:07;;;;;;;0.13;0.10;;;8.60;99.90;;;;;;5038584;28;20044;-64
2023/11/05 06:50:34;;;;;;;0.20;0.20;;;8.60;99.90;;;;;;5035668;28;20045;-64
2023/11/05 06:53:06;;;;;;;0.82;0.20;;;8.60;99.90;;;;;;5051548;28;20139;-64
2023/11/05 06:55:37;;;;;;;0.40;0.28;;;8.60;99.90;;;;;;5040697;28;20043;-64
2023/11/05 06:58:10;;;;;;;2.38;0.20;;;8.60;99.90;;;;;;5041234;28;20049;-64
2023/11/05 07:00:43;;;;;;;0.60;0.30;;;8.70;99.90;;;;;;5026665;28;20040;-63
2023/11/05 07:03:14;;;;;;;0.55;0.30;;;8.70;99.90;;;;;;5034267;28;20041;-65
2023/11/05 07:05:41;;;;;;;1.55;0.20;;;8.70;99.90;;;;;;5034469;28;20042;-64
2023/11/05 07:08:13;;;;;;;1.25;0.20;;;8.70;99.90;;;;;;5047692;28;20051;-64
2023/11/05 07:10:45;;;;;;;0.50;0.22;;;8.80;99.90;;;;;;5040605;28;20042;-64
2023/11/05 07:13:17;;;;;;;0.52;0.20;;;8.80;99.90;;;;;;5031908;28;20037;-64
2023/11/05 07:15:44;;;;;;;1.25;0.20;;;8.90;99.90;;;;;;5031752;28;20037;-64
2023/11/05 07:18:11;;;;;;;0.30;0.15;;;8.90;99.90;;;;;;5040316;28;20043;-64
2023/11/05 07:20:42;;;;;;;0.73;0.20;;;8.90;99.90;;;;;;5038587;28;20049;-64
2023/11/05 07:23:14;;;;;;;0.40;0.22;;;8.90;99.90;;;;;;5036600;28;20138;-64
2023/11/05 07:25:46;;;;;;;0.20;0.10;;;9.00;99.90;;;;;;5039864;28;20040;-64
2023/11/05 07:28:13;;;;;;;0.15;0.10;;;9.10;99.90;;;;;;5040226;28;20120;-63
2023/11/05 07:30:45;;;;;;;0.15;0.10;;;9.30;99.90;;;;;;5038478;28;20052;-64
2023/11/05 07:33:12;;;;;;;0.47;0.10;;;9.40;99.90;;;;;;5037204;28;20129;-64
2023/11/05 07:35:44;;;;;;;0.43;0.20;;;9.50;99.90;;;;;;5044936;28;20505;-64
2023/11/05 07:38:16;;;;;;;0.63;0.20;;;9.50;99.90;;;;;;5050318;28;20416;-64
2023/11/05 07:40:48;;;;;;;0.73;0.20;;;9.50;99.90;;;;;;5037437;28;20046;-64
2023/11/05 07:43:20;;;;;;;0.10;0.10;;;9.60;99.90;;;;;;5028751;28;20041;-63
2023/11/05 07:45:48;;;;;;;0.47;0.25;;;9.60;99.90;;;;;;5031669;28;20144;-69
2023/11/05 07:48:20;;;;;;;2.42;0.20;;;9.70;99.90;;;;;;5046535;28;20048;-63
2023/11/05 07:50:48;;;;;;;0.10;0.10;;;9.80;99.90;;;;;;5036326;28;20516;-63
2023/11/05 07:53:20;;;;;;;0.75;0.20;;;10.00;99.90;;;;;;5041273;28;20053;-66
2023/11/05 07:55:52;;;;;;;0.80;0.25;;;10.10;99.90;;;;;;5031927;28;20045;-64
2023/11/05 07:58:23;;;;;;;0.85;0.20;;;10.10;99.90;;;;;;5040676;28;20045;-63
2023/11/05 08:00:56;;;;;;;0.10;0.10;;;10.10;99.90;;;;;;5036483;28;20497;-63
2023/11/05 08:03:31;;;;;;;0.82;0.30;;;10.20;99.90;;;;;;5045576;28;20049;-63
2023/11/05 08:06:03;;;;;;;0.40;0.20;;;10.20;99.90;;;;;;5045229;28;20037;-64
2023/11/05 08:08:35;;;;;;;2.17;1.20;;;10.20;99.90;;;;;;5034801;28;20056;-63
2023/11/05 08:11:07;;;;;;;0.20;0.13;;;10.30;99.90;;;;;;5048177;28;20120;-63
2023/11/05 08:13:39;;;;;;;0.95;0.30;;;10.30;99.90;;;;;;5048837;28;20045;-63
2023/11/05 08:16:11;;;;;;;0.52;0.20;;;10.30;99.90;;;;;;5048782;28;20056;-63
2023/11/05 08:18:43;;;;;;;0.17;0.10;;;10.30;99.90;;;;;;5042863;28;20041;-63
2023/11/05 08:21:15;;;;;;;1.08;0.60;;;10.40;99.90;;;;;;5049144;28;20044;-63
2023/11/05 08:23:47;;;;;;;0.40;0.20;;;10.50;99.90;;;;;;5039602;28;20042;-63
2023/11/05 08:26:19;;;;;;;0.65;0.28;;;10.50;99.90;;;;;;5051549;28;20049;-64
2023/11/05 08:28:51;;;;;;;0.50;0.20;;;10.40;99.90;;;;;;5040182;28;20080;-63
2023/11/05 08:31:24;;;;;;;0.50;0.20;;;10.40;99.90;;;;;;5042765;28;20128;-63
2023/11/05 08:33:56;;;;;;;0.73;0.22;;;10.50;99.90;;;;;;5040310;28;20418;-63
2023/11/05 08:36:27;;;;;;;1.60;0.20;;;10.60;99.90;;;;;;5048210;28;20092;-63
2023/11/05 08:39:00;;;;;;;0.80;0.30;;;10.70;99.90;;;;;;5037390;28;20054;-63
2023/11/05 08:41:26;;;;;;;0.90;0.20;;;10.70;99.90;;;;;;5052429;28;20033;-63
2023/11/05 08:43:59;;;;;;;1.15;0.20;;;10.70;99.90;;;;;;5053644;28;20052;-63
2023/11/05 08:46:30;;;;;;;1.65;0.22;;;10.80;99.90;;;;;;5046969;28;20041;-63
2023/11/05 08:49:02;;;;;;;2.38;0.20;;;10.90;99.90;;;;;;5036218;28;20053;-63
2023/11/05 08:51:35;;;;;;;1.98;0.40;;;11.00;99.90;;;;;;5035969;28;20042;-63
2023/11/05 08:54:02;;;;;;;1.05;0.20;;;11.10;99.90;;;;;;5047200;28;20124;-63
2023/11/05 08:56:34;;;;;;;1.05;0.20;;;11.10;99.90;;;;;;5028285;28;20041;-63
2023/11/05 08:59:05;;;;;;;1.08;0.10;;;11.10;99.90;;;;;;5042932;28;20037;-63
2023/11/05 09:01:37;;;;;;;0.30;0.22;;;11.10;99.90;;;;;;5047363;28;20058;-63
2023/11/05 09:04:09;;;;;;;0.30;0.20;;;11.10;99.90;;;;;;5046588;28;20037;-63
2023/11/05 09:06:44;;;;;;;0.20;0.15;;;11.10;99.90;;;;;;5035110;28;20034;-64
2023/11/05 09:09:16;;;;;;;0.30;0.15;;;11.10;99.90;;;;;;5047023;28;20427;-63
2023/11/05 09:11:48;;;;;;;0.30;0.20;;;11.10;99.90;;;;;;5032134;28;20510;-63
2023/11/05 09:14:15;;;;;;;1.35;0.28;;;11.00;99.90;;;;;;5037178;28;20128;-64
2023/11/05 09:16:41;;;;;;;1.92;0.13;;;10.90;99.90;;;;;;5032465;28;20099;-63
2023/11/05 09:19:13;;;;;;;1.13;0.10;;;10.90;99.90;;;;;;5034816;28;20045;-63
2023/11/05 09:21:45;;;;;;;0.73;0.20;;;10.80;99.90;;;;;;5042473;28;20044;-63
2023/11/05 09:24:12;;;;;;;0.10;0.10;;;10.80;99.90;;;;;;5039517;28;20127;-63
2023/11/05 09:26:44;;;;;;;0.85;0.20;;;10.80;99.90;;;;;;5041913;28;20095;-63
2023/11/05 09:29:16;;;;;;;1.27;0.20;;;10.70;99.90;;;;;;5041494;28;20701;-63
2023/11/05 09:31:49;;;;;;;0.50;0.20;;;10.70;99.90;;;;;;5043147;28;20523;-63
2023/11/05 09:34:22;;;;;;;1.45;0.10;;;10.70;99.90;;;;;;5044245;28;20040;-63
2023/11/05 09:36:54;;;;;;;0.73;0.20;;;10.80;99.90;;;;;;5035569;28;20076;-63
2023/11/05 09:39:26;;;;;;;0.45;0.20;;;10.80;99.90;;;;;;5045373;28;20037;-63
2023/11/05 09:41:58;;;;;;;0.13;0.10;;;10.70;99.90;;;;;;5035749;28;20514;-63
2023/11/05 09:44:30;;;;;;;0.20;0.10;;;10.70;99.90;;;;;;5031503;28;20041;-63
2023/11/05 09:47:02;;;;;;;0.63;0.10;;;10.70;99.90;;;;;;5044823;28;20056;-63
2023/11/05 09:49:34;;;;;;;0.73;0.20;;;10.60;99.90;;;;;;5034597;28;20514;-63
2023/11/05 09:52:13;;;;;;;0.30;0.15;;;10.50;99.90;;;;;;5003031;28;20042;-63
2023/11/05 09:54:45;;;;;;;0.28;0.17;;;10.30;99.90;;;;;;5038357;28;20087;-63
2023/11/05 09:57:17;;;;;;;3.35;0.40;;;10.10;99.90;;;;;;5043192;28;20071;-63
2023/11/05 09:59:49;;;;;;;0.35;0.10;;;9.90;99.90;;;;;;5038246;28;20398;-63
2023/11/05 10:02:20;;;;;;;1.10;0.10;;;9.90;99.90;;;;;;5039311;28;20064;-64
2023/11/05 10:04:52;;;;;;;0.20;0.20;;;10.00;99.90;;;;;;5040885;28;20037;-63
2023/11/05 10:07:20;;;;;;;2.13;0.20;;;10.00;99.90;;;;;;5038977;28;20040;-63
2023/11/05 10:09:46;;;;;;;0.57;0.10;;;10.00;99.90;;;;;;5035579;28;20052;-63
2023/11/05 10:12:19;;;;;;;0.73;0.20;;;10.10;99.90;;;;;;5031693;28;20095;-63
2023/11/05 10:14:51;;;;;;;0.10;0.10;;;10.20;99.90;;;;;;5033767;28;20148;-63
2023/11/05 10:17:24;;;;;;;1.50;0.20;;;10.40;99.90;;;;;;5030039;28;20070;-63
2023/11/05 10:19:56;;;;;;;0.10;0.10;;;10.50;99.90;;;;;;5032945;28;20565;-63
2023/11/05 10:22:27;;;;;;;0.50;0.30;;;10.50;99.90;;;;;;5042014;28;20118;-63
2023/11/05 10:24:59;;;;;;;0.10;0.10;;;10.50;99.90;;;;;;5037763;28;20048;-63
2023/11/05 10:27:34;;;;;;;0.52;0.10;;;10.40;99.90;;;;;;5034234;28;20043;-63
2023/11/05 10:30:08;;;;;;;0.55;0.28;;;10.30;99.90;;;;;;5040782;28;20413;-63
2023/11/05 10:32:40;;;;;;;0.52;0.10;;;10.30;99.90;;;;;;5040730;28;20124;-63
2023/11/05 10:35:13;;;;;;;0.65;0.10;;;10.30;99.90;;;;;;5033630;28;20052;-63
2023/11/05 10:37:47;;;;;;;1.17;0.20;;;10.20;99.90;;;;;;5044717;28;20697;-64
2023/11/05 10:40:19;;;;;;;0.75;0.20;;;10.20;99.90;;;;;;5047468;28;20049;-63
2023/11/05 10:42:51;;;;;;;2.08;0.20;;;10.20;99.90;;;;;;5047363;28;20046;-64
2023/11/05 10:45:24;;;;;;;0.57;0.17;;;10.30;99.90;;;;;;5065556;28;20049;-63
2023/11/05 10:47:57;;;;;;;;;;;10.20;99.90;;;;;;5042396;28;20042;-63
2023/11/05 10:50:30;;;;;;;0.65;0.20;;;10.30;99.90;;;;;;5030319;28;19921;-63
2023/11/05 10:53:06;;;;;;;1.10;0.20;;;10.50;99.90;;;;;;5027262;28;20046;-64
2023/11/05 10:55:39;;;;;;;0.40;0.10;;;10.60;99.90;;;;;;5037023;28;20051;-63
2023/11/05 10:58:11;;;;;;;0.15;0.10;;;10.80;99.90;;;;;;5044629;28;20037;-63
2023/11/05 11:00:48;;;;;;;0.85;0.30;;;10.90;99.90;;;;;;5037017;28;20030;-63
2023/11/05 11:03:21;;;;;;;0.20;0.17;;;11.10;99.90;;;;;;5037666;28;20041;-63
2023/11/05 11:05:48;;;;;;;0.30;0.10;;;11.20;99.90;;;;;;5040135;28;20080;-63
2023/11/05 11:08:26;;;;;;;0.20;0.10;;;11.20;99.90;;;;;;5047413;28;20049;-63
2023/11/05 11:11:12;;;;;;;0.40;0.20;;;11.20;99.90;;;;;;5034207;28;20041;-63
2023/11/05 11:13:57;;;;;;;0.40;0.30;;;11.30;99.90;;;;;;5045797;28;20048;-63
2023/11/05 11:16:30;;;;;;;1.08;0.20;;;11.40;99.90;;;;;;5037762;28;20049;-63
2023/11/05 11:19:13;;;;;;;0.28;0.10;;;11.50;99.90;;;;;;5039923;28;20064;-63
2023/11/05 11:22:05;;;;;;;1.00;0.20;;;11.50;99.90;;;;;;5044000;28;20453;-63
2023/11/05 11:24:40;;;;;;;0.90;0.20;;;11.50;99.90;;;;;;5028691;28;20166;-63
2023/11/05 11:27:14;;;;;;;0.20;0.15;;;11.50;99.90;;;;;;5021816;28;20050;-63
2023/11/05 11:29:47;;;;;;;1.02;0.20;;;11.60;99.90;;;;;;5031587;28;20056;-63
2023/11/05 11:32:19;;;;;;;0.52;0.20;;;11.70;99.90;;;;;;5042191;28;20029;-64
2023/11/05 11:34:51;;;;;;;0.52;0.20;;;11.70;99.90;;;;;;5045064;28;20047;-63
2023/11/05 11:37:22;;;;;;;0.22;0.20;;;11.70;99.90;;;;;;5042457;28;20065;-63
2023/11/05 11:39:56;;;;;;;0.30;0.13;;;11.70;99.90;;;;;;5037900;28;20072;-63
2023/11/05 11:42:28;;;;;;;0.70;0.10;;;11.70;99.90;;;;;;5038524;28;20045;-63
2023/11/05 11:45:00;;;;;;;0.65;0.20;;;11.70;99.90;;;;;;5015012;28;20057;-63
2023/11/05 11:47:33;;;;;;;0.30;0.20;;;11.70;99.90;;;;;;5033145;28;20053;-63
2023/11/05 11:50:09;;;;;;;0.60;0.10;;;11.60;99.90;;;;;;5030979;28;20045;-63
2023/11/05 11:52:50;;;;;;;1.10;0.22;;;11.60;99.90;;;;;;5029097;28;20041;-63
2023/11/05 11:55:24;;;;;;;0.22;0.17;;;11.50;99.90;;;;;;5038270;28;20061;-63
2023/11/05 11:57:57;;;;;;;0.30;0.20;;;11.50;99.90;;;;;;5022181;28;20057;-63
2023/11/05 12:00:29;;;;;;;0.30;0.10;;;11.50;99.90;;;;;;5038013;28;20042;-63
2023/11/05 12:03:01;;;;;;;0.20;0.10;;;11.50;99.90;;;;;;5042046;28;20049;-63
2023/11/05 12:05:34;;;;;;;0.85;0.20;;;11.50;99.90;;;;;;5037022;28;20053;-64
2023/11/05 12:08:06;;;;;;;1.95;0.20;;;11.50;99.90;;;;;;5040034;28;20037;-63
2023/11/05 12:10:38;;;;;;;0.35;0.20;;;11.50;99.90;;;;;;5041175;28;20048;-63
2023/11/05 12:13:11;;;;;;;1.25;0.20;;;11.70;99.90;;;;;;5040425;28;20052;-64
2023/11/05 12:15:47;;;;;;;0.95;0.20;;;11.90;99.90;;;;;;5014522;28;20413;-63
2023/11/05 12:18:20;;;;;;;0.55;0.20;;;12.10;99.90;;;;;;5043729;28;20049;-63
2023/11/05 12:20:52;;;;;;;0.20;0.20;;;12.10;99.90;;;;;;5050127;28;20413;-63
2023/11/05 12:23:24;;;;;;;0.30;0.10;;;11.90;99.90;;;;;;5032630;28;20048;-64
2023/11/05 12:26:00;;;;;;;0.30;0.20;;;11.90;99.90;;;;;;5032812;28;20060;-64
2023/11/05 12:28:28;;;;;;;0.10;0.10;;;11.90;99.90;;;;;;5046419;28;20076;-64
2023/11/05 12:31:03;;;;;;;0.57;0.30;;;11.90;99.90;;;;;;5035074;28;20055;-64
2023/11/05 12:33:36;;;;;;;0.98;0.15;;;12.00;99.90;;;;;;5047609;28;20049;-63
2023/11/05 12:36:10;;;;;;;0.20;0.10;;;11.90;99.90;;;;;;5039542;28;20143;-63
2023/11/05 12:38:37;;;;;;;0.50;0.30;;;11.90;99.90;;;;;;5039868;28;20047;-63
2023/11/05 12:41:04;;;;;;;2.25;0.73;;;11.90;99.90;;;;;;5038770;28;20045;-63
2023/11/05 12:43:36;;;;;;;1.88;0.57;;;11.90;99.90;;;;;;5032992;28;20042;-64
2023/11/05 12:46:03;;;;;;;0.40;0.30;;;11.90;99.90;;;;;;5044211;28;20056;-63
2023/11/05 12:48:31;;;;;;;0.95;0.30;;;12.00;99.90;;;;;;5048125;28;20029;-64
2023/11/05 12:51:04;;;;;;;0.22;0.20;;;12.00;99.90;;;;;;5049712;28;20052;-63
2023/11/05 12:53:36;;;;;;;1.05;0.20;;;12.00;99.90;;;;;;5043486;28;20040;-63
2023/11/05 12:56:10;;;;;;;0.80;0.10;;;12.10;99.90;;;;;;5030724;28;20041;-64
2023/11/05 12:58:42;;;;;;;6.15;1.90;;;12.10;99.90;;;;;;5032145;28;20530;-64
2023/11/05 13:01:14;;;;;;;0.45;0.28;;;12.10;99.90;;;;;;5032051;28;20057;-63
2023/11/05 13:03:46;;;;;;;0.30;0.20;;;12.10;99.90;;;;;;5033256;28;20049;-63
2023/11/05 13:06:20;;;;;;;0.52;0.17;;;12.00;99.90;;;;;;5039651;28;20056;-64
2023/11/05 13:08:52;;;;;;;0.20;0.20;;;11.90;99.90;;;;;;5039985;28;20064;-64
2023/11/05 13:11:24;;;;;;;0.50;0.30;;;11.70;99.90;;;;;;5040959;28;20053;-63
2023/11/05 13:13:56;;;;;;;0.38;0.20;;;11.70;99.90;;;;;;5041193;28;20410;-63
2023/11/05 13:16:29;;;;;;;0.38;0.20;;;11.60;99.90;;;;;;5047674;28;20041;-63